Airfield :
LOGIN :

Register | Disclaimer

   EN    FR    IT 

 










Legend :    VFR   Marginal VFR   IFR   Intensive IFR   Very Intensive IFR
Visi :
Ceiling :
>= 8 km
>= 3000ft
5 to 8 km
1000 to 3000 ft
1500m to 5 km
500 to 1000 ft
800 to 1500m
200 to 500 ft
< 800m
< 200 ft
Symbols :   Thunderstorms  Fog  Heavy snow  Heavy precipitations  Wind > 20 kt
SIGMETs :     Misc.  Thunderstorms  Icing  Turbulence  Mountain Waves  Volcanic Ashes







- Airport Elevation : 353 ft
- IATA code : LIN


LIML - Milano Linate

CURRENT METAR :
  • 180720Z 34004KT 290V360 CAVOK 02/M05 Q1016 NOSIG

EXPIRED METARs :
  • 180650Z 33003KT 300V360 CAVOK 02/M04 Q1015 NOSIG
  • 180620Z 35004KT CAVOK 01/M05 Q1015 NOSIG
  • 180550Z VRB02KT CAVOK M01/M05 Q1015 NOSIG
  • 180520Z 33003KT CAVOK 01/M05 Q1015 NOSIG
  • 180450Z VRB01KT CAVOK M00/M04 Q1015 NOSIG

TAF TAF LIML
Valid from the 18 at 06:00 until the 19 at 06:00 UTC


180500Z 1806/1906 VRB05KT CAVOK
TEMPO 1902/1906 3000 BR
No reported NOTAMs for that airfield.
2 SIGMETs reported for the Milano FIR (LIMM) :
 
Severe turbulence
LIMM SIGMET 4 VALID 180620/180820 LIIP
LIMM MILANO FIR SEV TURB FCST W OF LINE N4630 E00921 - N4338 E01132 FL030/110 STNR NC=
Severe turbulence
LIMM SIGMET 3 VALID 180615/180815 LIIP
LIMM MILANO FIR SEV TURB FCST ENTIRE FIR ABV FL110 STNR NC=



MET'MAP, your aeronautical weather chart ! - Copyright ORBIFLY December 2007 - Disclaimer

ORBIFLY MET'MAP TEAM :

Programming & Development : Alexandra Zaïnal
Concept & Development : Baudouin d'Aumeries
Co-Development & Prog : Marc-Olivier Méhu
Technical & hardware support : Manuel Goepfert

Contact : metmap@orbifly.com




SOURCES & CREDITS :

   NOAA